EDVE 210250Z AUTO 32004KT 9999 // OVC063/// 10/08 Q1026 EDVE 210220Z AUTO 27003KT 9999 // FEW052/// OVC063/// 10/08 Q1026 EDVE 210150Z AUTO 00000KT 9999 // OVC064/// 10/08 Q1026 EDVE 210120Z AUTO 31003KT 9999 // OVC065/// 10/09 Q1026 EDVE 210050Z AUTO 00000KT 9999 // OVC065/// 10/08 Q1026 EDVE 210020Z AUTO 00000KT 9999 // OVC066/// 10/08 Q1026 EDVE 202350Z AUTO 35004KT 9999 // OVC066/// 10/08 Q1026 EDVE 202320Z AUTO 35004KT 9999 // OVC067/// 10/08 Q1026 EDVE 202250Z AUTO 34004KT 9999 // BKN067/// 11/08 Q1026 EDVE 202220Z AUTO 35004KT 320V050 9999 // BKN067/// 11/08 Q1025 EDVE 202150Z AUTO 36003KT 320V080 9999 // OVC068/// 11/08 Q1025 EDVE 202120Z AUTO 36003KT 320V040 9999 // OVC067/// 12/08 Q1025 EDVE 202050Z AUTO 01004KT 330V090 9999 // OVC067/// 12/08 Q1025 EDVE 202020Z AUTO 01003KT 300V070 9999 // OVC066/// 12/08 Q1025 EDVE 201950Z AUTO VRB03KT 9999 // OVC066/// 12/08 Q1024 EDVE 201920Z AUTO 01003KT 330V070 9999 // FEW052/// OVC065/// 12/08 Q1024 EDVE 201850Z AUTO VRB02KT 9999 // FEW045/// BKN065/// 13/07 Q1024 EDVE 201820Z AUTO VRB02KT 9999 // OVC066/// 13/08 Q1024 EDVE 201720Z 00000KT CAVOK 13/07 Q1023 EDVE 201650Z 00000KT 9999 FEW049 13/08 Q1023 EDVE 201620Z VRB01KT 9999 FEW042 14/07 Q1023 EDVE 201550Z 00000KT 9999 FEW041 14/07 Q1023 EDVE 201520Z 04003KT 340V090 9999 FEW042 14/06 Q1022 EDVE 201450Z VRB02KT 9999 FEW041 15/06 Q1022 EDVE 201420Z 06003KT 020V120 9999 FEW036 15/07 Q1022 EDVE 201350Z 08005KT 010V160 CAVOK 15/06 Q1022 EDVE 201320Z 05004KT 350V110 CAVOK 14/06 Q1022 EDVE 201250Z 08005KT 040V120 CAVOK 14/07 Q1022 EDVE 201220Z 08004KT 020V110 9999 FEW040 14/07 Q1022 EDVE 201150Z 06004KT 330V110 9999 SCT035 SCT047 14/07 Q1022 EDVE 201120Z 07005KT 010V140 9999 SCT034 15/07 Q1022 EDVE 201050Z 06003KT 340V100 9999 SCT027 BKN035 14/07 Q1022 EDVE 201020Z VRB03KT 9999 FEW024 SCT028 14/07 Q1022 EDVE 200950Z 09004KT 020V130 CAVOK 13/08 Q1022 EDVE 200920Z 11004KT 070V140 CAVOK 13/08 Q1022 EDVE 200850Z 10004KT 360V150 CAVOK 13/08 Q1022 EDVE 200820Z 08004KT 030V130 CAVOK 12/08 Q1021 EDVE 200750Z 08003KT 020V120 CAVOK 12/08 Q1021 EDVE 200720Z 00000KT CAVOK 11/08 Q1021 EDVE 200650Z VRB02KT CAVOK 11/08 Q1021 EDVE 200620Z 00000KT CAVOK 10/08 Q1021 EDVE 200550Z VRB01KT 9999 OVC049 10/08 Q1021 EDVE 200520Z 08002KT 9999 OVC048 10/08 Q1021 EDVE 200450Z 00000KT 9999 OVC048 10/08 Q1020 EDVE 200420Z AUTO VRB02KT 9999 // OVC049/// 10/08 Q1020 EDVE 200350Z AUTO 09003KT 9999 // OVC050/// 11/08 Q1020 EDVE 200320Z AUTO VRB02KT 9999 // OVC050/// 11/08 Q1020 EDVE 200250Z AUTO 08003KT 040V110 9999 // OVC049/// 11/08 Q1020 EDVE 200220Z AUTO 07003KT 9999 // OVC052/// 11/08 Q1020 EDVE 200150Z AUTO 07004KT 9999 // OVC052/// 11/08 Q1020 EDVE 200120Z AUTO 07004KT 030V100 9999 // OVC052/// 11/08 Q1020 EDVE 200050Z AUTO 07003KT 040V100 9999 // OVC052/// 11/08 Q1019 EDVE 200020Z AUTO 08004KT 9999 // OVC053/// 11/08 Q1019 EDVE 192350Z AUTO 08003KT 050V110 9999 // OVC052/// 11/08 Q1019 EDVE 192320Z AUTO 08003KT 050V110 9999 // OVC051/// 11/08 Q1019 EDVE 192250Z AUTO 08004KT 9999 // OVC050/// 12/08 Q1019 EDVE 192220Z AUTO 09003KT 9999 // OVC051/// 11/08 Q1019 EDVE 192150Z AUTO 08004KT 9999 // OVC052/// 12/08 Q1019 EDVE 192120Z 08004KT CAVOK 12/08 Q1019 EDVE 192050Z AUTO 08003KT 9999 // OVC048/// 11/08 Q1019 EDVE 192020Z AUTO 00000KT 9999 // OVC050/// 11/08 Q1019 EDVE 191950Z AUTO 00000KT 9999 // OVC050/// 11/09 Q1019 EDVE 191920Z AUTO 00000KT 9999 // OVC049/// 12/09 Q1019 EDVE 191850Z AUTO VRB02KT 9999 // OVC050/// 12/08 Q1018 EDVE 191820Z AUTO 08002KT 9999 // OVC050/// 12/08 Q1018 EDVE 191750Z VRB02KT CAVOK 13/08 Q1018 EDVE 191720Z 05003KT 020V090 CAVOK 13/08 Q1018 EDVE 191650Z 06003KT 9999 OVC049 13/08 Q1018 EDVE 191620Z VRB02KT 9999 OVC044 14/08 Q1017 EDVE 191550Z 10005KT 070V130 9999 OVC043 14/07 Q1017 EDVE 191520Z 08005KT 030V120 9999 OVC046 14/07 Q1018

METAR Messwerte

Zurück zur Übersicht

Ort
m ü. NN
Zeit Temperatur Taupunkt Rel.
Luftfeuchte
Luftdruck:
Altimeter
NN
Station
Wind in Beaufort
(Knoten)
Sichtweite
(Meter)
Wolken
(Meter über Grund)
Wettererscheinung
Braunschweig
88
Di 21.09. 04:5010887 %1026
1026
1015
NW 2 (4)>= 10000Bedeckt (1900) 
Braunschweig
88
Di 21.09. 04:2010887 %1026
1026
1015
W 2 (3)>= 10000Bedeckt (1900)
Leicht bewölkt (1600)
 
Braunschweig
88
Di 21.09. 03:5010887 %1026
1026
1015
Windstill>= 10000Bedeckt (2000) 
Braunschweig
88
Di 21.09. 03:2010993 %1026
1026
1015
NW 2 (3)>= 10000Bedeckt (2000) 
Braunschweig
88
Di 21.09. 02:5010887 %1026
1026
1015
Windstill>= 10000Bedeckt (2000) 
Braunschweig
88
Di 21.09. 02:2010887 %1026
1026
1015
Windstill>= 10000Bedeckt (2000) 
Braunschweig
88
Di 21.09. 01:5010887 %1026
1026
1015
N 2 (4)>= 10000Bedeckt (2000) 
Braunschweig
88
Di 21.09. 01:2010887 %1026
1026
1015
N 2 (4)>= 10000Bedeckt (2000) 
Braunschweig
88
Di 21.09. 00:5011882 %1026
1026
1015
NNW 2 (4)>= 10000Stark bewölkt (2000) 
Braunschweig
88
Di 21.09. 00:2011882 %1025
1025
1014
N 2 (4)
NW - NO
>= 10000Stark bewölkt (2000) 
Braunschweig
88
Mo 20.09. 23:5011882 %1025
1025
1014
N 2 (3)
NW - O
>= 10000Bedeckt (2100) 
Braunschweig
88
Mo 20.09. 23:2012876 %1025
1025
1014
N 2 (3)
NW - NO
>= 10000Bedeckt (2000) 
Braunschweig
88
Mo 20.09. 22:5012876 %1025
1025
1014
N 2 (4)
NNW - O
>= 10000Bedeckt (2000) 
Braunschweig
88
Mo 20.09. 22:2012876 %1025
1025
1014
N 2 (3)
WNW - ONO
>= 10000Bedeckt (2000) 
Braunschweig
88
Mo 20.09. 21:5012876 %1024
1024
1013
Uml 2 (3)>= 10000Bedeckt (2000) 
Braunschweig
88
Mo 20.09. 21:2012876 %1024
1024
1013
N 2 (3)
NNW - ONO
>= 10000Bedeckt (2000)
Leicht bewölkt (1600)
 
Braunschweig
88
Mo 20.09. 20:5013767 %1024
1024
1013
Uml 1 (2)>= 10000Stark bewölkt (2000)
Leicht bewölkt (1400)
 
Braunschweig
88
Mo 20.09. 20:2013872 %1024
1024
1013
Uml 1 (2)>= 10000Bedeckt (2000) 
Braunschweig
88
Mo 20.09. 19:2013767 %1023
1023
1012
Windstill>= 10000Nicht signifikant 
Braunschweig
88
Mo 20.09. 18:5013872 %1023
1023
1012
Windstill>= 10000Leicht bewölkt (1500) 
Braunschweig
88
Mo 20.09. 18:2014763 %1023
1023
1012
Uml 1 (1)>= 10000Leicht bewölkt (1300) 
Braunschweig
88
Mo 20.09. 17:5014763 %1023
1023
1012
Windstill>= 10000Leicht bewölkt (1200) 
Braunschweig
88
Mo 20.09. 17:2014658 %1022
1022
1011
NO 2 (3)
NNW - O
>= 10000Leicht bewölkt (1300) 
Braunschweig
88
Mo 20.09. 16:5015655 %1022
1022
1011
Uml 1 (2)>= 10000Leicht bewölkt (1200) 
Braunschweig
88
Mo 20.09. 16:2015759 %1022
1022
1011
ONO 2 (3)
NNO - OSO
>= 10000Leicht bewölkt (1100) 
Braunschweig
88
Mo 20.09. 15:5015655 %1022
1022
1011
O 2 (5)
N - SSO
>= 10000Nicht signifikant 
Braunschweig
88
Mo 20.09. 15:2014658 %1022
1022
1011
NO 2 (4)
N - OSO
>= 10000Nicht signifikant 
Braunschweig
88
Mo 20.09. 14:5014763 %1022
1022
1011
O 2 (5)
NO - OSO
>= 10000Nicht signifikant 
Braunschweig
88
Mo 20.09. 14:2014763 %1022
1022
1011
O 2 (4)
NNO - OSO
>= 10000Leicht bewölkt (1200) 
Braunschweig
88
Mo 20.09. 13:5014763 %1022
1022
1011
ONO 2 (4)
NNW - OSO
>= 10000Wolkig (1400)
Wolkig (1100)
 
Braunschweig
88
Mo 20.09. 13:2015759 %1022
1022
1011
ONO 2 (5)
N - SO
>= 10000Wolkig (1000) 
Braunschweig
88
Mo 20.09. 12:5014763 %1022
1022
1011
ONO 2 (3)
NNW - O
>= 10000Stark bewölkt (1100)
Wolkig (820)
 
Braunschweig
88
Mo 20.09. 12:2014763 %1022
1022
1011
Uml 2 (3)>= 10000Wolkig (850)
Leicht bewölkt (730)
 
Braunschweig
88
Mo 20.09. 11:5013872 %1022
1022
1011
O 2 (4)
NNO - SO
>= 10000Nicht signifikant 
Braunschweig
88
Mo 20.09. 11:2013872 %1022
1022
1011
OSO 2 (4)
ONO - SO
>= 10000Nicht signifikant 
Braunschweig
88
Mo 20.09. 10:5013872 %1022
1022
1011
O 2 (4)
N - SSO
>= 10000Nicht signifikant 
Braunschweig
88
Mo 20.09. 10:2012876 %1021
1021
1010
O 2 (4)
NNO - SO
>= 10000Nicht signifikant 
Braunschweig
88
Mo 20.09. 09:5012876 %1021
1021
1010
O 2 (3)
NNO - OSO
>= 10000Nicht signifikant 
Braunschweig
88
Mo 20.09. 09:2011882 %1021
1021
1010
Windstill>= 10000Nicht signifikant 
Braunschweig
88
Mo 20.09. 08:5011882 %1021
1021
1010
Uml 1 (2)>= 10000Nicht signifikant 
Braunschweig
88
Mo 20.09. 08:2010887 %1021
1021
1010
Windstill>= 10000Nicht signifikant 
Braunschweig
88
Mo 20.09. 07:5010887 %1021
1021
1010
Uml 1 (1)>= 10000Bedeckt (1500) 
Braunschweig
88
Mo 20.09. 07:2010887 %1021
1021
1010
O 1 (2)>= 10000Bedeckt (1500) 
Braunschweig
88
Mo 20.09. 06:5010887 %1020
1020
1009
Windstill>= 10000Bedeckt (1500) 
Braunschweig
88
Mo 20.09. 06:2010887 %1020
1020
1009
Uml 1 (2)>= 10000Bedeckt (1500) 
Braunschweig
88
Mo 20.09. 05:5011882 %1020
1020
1009
O 2 (3)>= 10000Bedeckt (1500) 
Braunschweig
88
Mo 20.09. 05:2011882 %1020
1020
1009
Uml 1 (2)>= 10000Bedeckt (1500) 
Braunschweig
88
Mo 20.09. 04:5011882 %1020
1020
1009
O 2 (3)
NO - OSO
>= 10000Bedeckt (1500) 
Braunschweig
88
Mo 20.09. 04:2011882 %1020
1020
1009
ONO 2 (3)>= 10000Bedeckt (1600) 
Braunschweig
88
Mo 20.09. 03:5011882 %1020
1020
1009
ONO 2 (4)>= 10000Bedeckt (1600) 
Braunschweig
88
Mo 20.09. 03:2011882 %1020
1020
1009
ONO 2 (4)
NNO - O
>= 10000Bedeckt (1600) 
Braunschweig
88
Mo 20.09. 02:5011882 %1019
1019
1008
ONO 2 (3)
NO - O
>= 10000Bedeckt (1600) 
Braunschweig
88
Mo 20.09. 02:2011882 %1019
1019
1008
O 2 (4)>= 10000Bedeckt (1600) 
Braunschweig
88
Mo 20.09. 01:5011882 %1019
1019
1008
O 2 (3)
NO - OSO
>= 10000Bedeckt (1600) 
Braunschweig
88
Mo 20.09. 01:2011882 %1019
1019
1008
O 2 (3)
NO - OSO
>= 10000Bedeckt (1600) 
Braunschweig
88
Mo 20.09. 00:5012876 %1019
1019
1008
O 2 (4)>= 10000Bedeckt (1500) 
Braunschweig
88
Mo 20.09. 00:2011882 %1019
1019
1008
O 2 (3)>= 10000Bedeckt (1600) 
Braunschweig
88
So 19.09. 23:5012876 %1019
1019
1008
O 2 (4)>= 10000Bedeckt (1600) 
Braunschweig
88
So 19.09. 23:2012876 %1019
1019
1008
O 2 (4)>= 10000Nicht signifikant 
Braunschweig
88
So 19.09. 22:5011882 %1019
1019
1008
O 2 (3)>= 10000Bedeckt (1500) 
Braunschweig
88
So 19.09. 22:2011882 %1019
1019
1008
Windstill>= 10000Bedeckt (1500) 
Braunschweig
88
So 19.09. 21:5011987 %1019
1019
1008
Windstill>= 10000Bedeckt (1500) 
Braunschweig
88
So 19.09. 21:2012982 %1019
1019
1008
Windstill>= 10000Bedeckt (1500) 
Braunschweig
88
So 19.09. 20:5012876 %1018
1018
1007
Uml 1 (2)>= 10000Bedeckt (1500) 
Braunschweig
88
So 19.09. 20:2012876 %1018
1018
1007
O 1 (2)>= 10000Bedeckt (1500) 
Braunschweig
88
So 19.09. 19:5013872 %1018
1018
1007
Uml 1 (2)>= 10000Nicht signifikant 
Braunschweig
88
So 19.09. 19:2013872 %1018
1018
1007
NO 2 (3)
NNO - O
>= 10000Nicht signifikant 
Braunschweig
88
So 19.09. 18:5013872 %1018
1018
1007
ONO 2 (3)>= 10000Bedeckt (1500) 
Braunschweig
88
So 19.09. 18:2014867 %1017
1017
1006
Uml 1 (2)>= 10000Bedeckt (1300) 
Braunschweig
88
So 19.09. 17:5014763 %1017
1017
1006
O 2 (5)
ONO - SO
>= 10000Bedeckt (1300) 
Braunschweig
88
So 19.09. 17:2014763 %1018
1018
1007
O 2 (5)
NNO - OSO
>= 10000Bedeckt (1400) 

Altimeter: Einstellung am Altimeter (Höhenmesser), die Höhe 0 muss auf diesen Luftdruckwert zeigen, damit das Gerät die Stationshöhe richtig anzeigt.

NN: Luftdruck reduziert auf "Normal Null", auf Meereshöhe, dieser von der Temperatur abhängige Wert wird bisweilen unkorrekt einfach als "Luftdruck" bezeichnet. Eigentlich nur eine fiktive Größe, die es erlaubt, Stationen auf unterschiedlichen Höhen miteinander zu vergleichen.

Station: Realer Luftdruck an der Station.